createdAt,value
2022-07-25T00:00:24.967Z,25.11
2022-07-25T00:01:21.763Z,24.85
2022-07-25T00:02:20.308Z,24.71
2022-07-25T00:03:18.568Z,24.41
2022-07-25T00:04:15.851Z,24.74
2022-07-25T00:05:13.572Z,24.23
2022-07-25T00:06:13.363Z,24.72
2022-07-25T00:07:15.991Z,24.57
2022-07-25T00:08:12.735Z,24.68
2022-07-25T00:09:10.022Z,24.72
2022-07-25T00:10:07.870Z,24.69
2022-07-25T00:11:05.809Z,24.12
2022-07-25T00:12:02.554Z,24.89
2022-07-25T00:13:02.654Z,24.30
2022-07-25T00:13:59.794Z,24.73
2022-07-25T00:14:56.537Z,24.39
2022-07-25T00:15:54.322Z,24.66
2022-07-25T00:16:51.566Z,24.34
2022-07-25T00:17:48.362Z,24.68
2022-07-25T00:18:45.261Z,24.35
2022-07-25T00:19:42.012Z,24.57
2022-07-25T00:20:38.788Z,24.46
2022-07-25T00:21:35.597Z,24.30
2022-07-25T00:22:32.612Z,24.27
2022-07-25T00:23:29.409Z,24.26
2022-07-25T00:24:26.272Z,24.28
2022-07-25T00:25:23.025Z,24.24
2022-07-25T00:26:19.757Z,24.71
2022-07-25T00:27:16.663Z,24.21
2022-07-25T00:28:13.449Z,24.69
2022-07-25T00:29:10.254Z,24.53
2022-07-25T00:30:07.738Z,23.69
2022-07-25T00:31:04.724Z,24.48
2022-07-25T00:32:01.564Z,23.73
2022-07-25T00:32:58.318Z,24.49
2022-07-25T00:33:55.160Z,24.35
2022-07-25T00:34:52.076Z,24.39
2022-07-25T00:35:48.787Z,24.13
2022-07-25T00:36:45.615Z,24.52
2022-07-25T00:37:42.373Z,24.25
2022-07-25T00:38:39.196Z,23.70
2022-07-25T00:39:36.597Z,23.95
2022-07-25T00:40:33.477Z,23.91
2022-07-25T00:41:30.379Z,24.15
2022-07-25T00:42:27.168Z,23.96
2022-07-25T00:43:23.966Z,23.73
2022-07-25T00:44:31.679Z,24.08
2022-07-25T00:45:28.641Z,23.91
2022-07-25T00:46:25.490Z,24.21
2022-07-25T00:47:23.962Z,24.27
2022-07-25T00:48:20.677Z,24.29
2022-07-25T00:49:17.578Z,23.54
2022-07-25T00:50:14.365Z,24.13
2022-07-25T00:51:12.034Z,24.11
2022-07-25T00:52:08.847Z,24.26
2022-07-25T00:53:05.718Z,23.45
2022-07-25T00:54:02.672Z,24.14
2022-07-25T00:54:59.714Z,23.95
2022-07-25T00:55:56.465Z,24.10
2022-07-25T00:56:53.354Z,23.24
2022-07-25T00:57:50.187Z,24.14
2022-07-25T00:58:46.980Z,24.17
2022-07-25T00:59:43.819Z,23.41
2022-07-25T01:00:40.710Z,23.89
2022-07-25T01:01:39.102Z,23.51
2022-07-25T01:02:37.029Z,23.59
2022-07-25T01:03:33.988Z,23.90
2022-07-25T01:04:30.847Z,24.12
2022-07-25T01:05:27.631Z,23.43
2022-07-25T01:06:25.617Z,24.06
2022-07-25T01:07:23.300Z,23.45
2022-07-25T01:08:21.658Z,23.03
2022-07-25T01:09:21.146Z,23.89
2022-07-25T01:10:17.930Z,24.07
2022-07-25T01:11:14.738Z,24.06
2022-07-25T01:12:11.479Z,23.99
2022-07-25T01:13:08.242Z,23.40
2022-07-25T01:14:06.833Z,24.05
2022-07-25T01:15:03.917Z,23.83
2022-07-25T01:16:00.949Z,23.74
2022-07-25T01:16:57.712Z,23.94
2022-07-25T01:17:54.714Z,23.95
2022-07-25T01:18:51.419Z,23.97
2022-07-25T01:19:48.242Z,23.08
2022-07-25T01:20:45.085Z,23.82
2022-07-25T01:21:45.022Z,23.70
2022-07-25T01:22:41.929Z,23.81
2022-07-25T01:23:38.727Z,23.62
2022-07-25T01:24:36.347Z,23.74
2022-07-25T01:25:33.088Z,23.54
2022-07-25T01:26:30.526Z,23.64
2022-07-25T01:27:27.282Z,22.99
2022-07-25T01:28:25.047Z,22.97
2022-07-25T01:29:22.371Z,23.18
2022-07-25T01:30:20.995Z,23.73
2022-07-25T01:31:17.990Z,23.65
2022-07-25T01:32:14.806Z,23.53
2022-07-25T01:33:17.096Z,23.52
2022-07-25T01:34:13.853Z,23.55
2022-07-25T01:35:12.359Z,23.79
2022-07-25T01:36:09.292Z,23.63
2022-07-25T01:37:06.045Z,23.62
2022-07-25T01:38:02.822Z,23.37
2022-07-25T01:38:59.677Z,23.48
2022-07-25T01:39:56.808Z,23.69
2022-07-25T01:40:53.542Z,23.67
2022-07-25T01:41:50.260Z,23.70
2022-07-25T01:42:47.016Z,23.63
2022-07-25T01:43:43.830Z,23.73
2022-07-25T01:44:40.543Z,23.72
2022-07-25T01:45:37.947Z,23.17
2022-07-25T01:46:34.765Z,23.74
2022-07-25T01:47:31.687Z,23.59
2022-07-25T01:48:28.711Z,23.50
2022-07-25T01:49:26.815Z,23.42
2022-07-25T01:50:23.866Z,23.76
2022-07-25T01:51:20.663Z,23.69
2022-07-25T01:52:17.579Z,23.70
2022-07-25T01:53:14.304Z,23.78
2022-07-25T01:54:11.133Z,23.48
2022-07-25T01:55:08.664Z,23.12
2022-07-25T01:56:06.742Z,23.42
2022-07-25T01:57:06.925Z,23.65
2022-07-25T01:58:04.018Z,23.49
2022-07-25T01:59:03.081Z,22.78
2022-07-25T02:00:00.307Z,23.34
2022-07-25T02:00:57.294Z,23.44
2022-07-25T02:01:54.109Z,23.62
2022-07-25T02:03:10.904Z,23.20
2022-07-25T02:04:08.117Z,23.67
2022-07-25T02:05:07.946Z,23.31
2022-07-25T02:06:07.982Z,23.59
2022-07-25T02:07:05.817Z,23.50
2022-07-25T02:08:03.470Z,23.58
2022-07-25T02:09:00.191Z,23.74
2022-07-25T02:09:57.157Z,23.78
2022-07-25T02:10:54.444Z,23.78
2022-07-25T02:11:51.402Z,23.37
2022-07-25T02:12:48.154Z,23.48
2022-07-25T02:13:44.930Z,23.64
2022-07-25T02:14:41.756Z,23.62
2022-07-25T02:15:38.626Z,23.56
2022-07-25T02:16:35.563Z,23.79
2022-07-25T02:17:32.388Z,23.79
2022-07-25T02:18:29.516Z,23.70
2022-07-25T02:19:26.307Z,23.14
2022-07-25T02:20:23.082Z,23.58
2022-07-25T02:21:19.859Z,23.62
2022-07-25T02:22:16.614Z,23.56
2022-07-25T02:23:13.395Z,23.31
2022-07-25T02:24:10.547Z,23.24
2022-07-25T02:25:07.659Z,23.49
2022-07-25T02:26:05.432Z,23.67
2022-07-25T02:27:02.150Z,22.94
2022-07-25T02:27:59.544Z,23.54
2022-07-25T02:28:56.319Z,23.73
2022-07-25T02:29:53.107Z,23.68
2022-07-25T02:30:50.173Z,23.57
2022-07-25T02:31:46.932Z,23.07
2022-07-25T02:32:43.648Z,23.47
2022-07-25T02:33:40.457Z,22.85
2022-07-25T02:34:37.185Z,23.44
2022-07-25T02:35:33.978Z,23.52
2022-07-25T02:36:30.832Z,23.55
2022-07-25T02:37:27.675Z,23.25
2022-07-25T02:38:24.420Z,23.03
2022-07-25T02:39:21.816Z,23.58
2022-07-25T02:40:18.587Z,23.57
2022-07-25T02:41:15.448Z,23.51
2022-07-25T02:42:12.251Z,23.49
2022-07-25T02:43:09.020Z,23.39
2022-07-25T02:44:07.250Z,23.23
2022-07-25T02:45:04.964Z,23.29
2022-07-25T02:46:01.779Z,23.38
2022-07-25T02:46:58.768Z,23.38
2022-07-25T02:47:55.552Z,23.57
2022-07-25T02:48:53.549Z,23.49
2022-07-25T02:49:50.457Z,23.30
2022-07-25T02:50:47.307Z,23.44
2022-07-25T02:51:44.141Z,23.56
2022-07-25T02:52:41.001Z,22.86
2022-07-25T02:53:56.477Z,23.50
2022-07-25T02:54:53.693Z,22.89
2022-07-25T02:55:50.436Z,23.12
2022-07-25T02:56:47.224Z,22.95
2022-07-25T02:57:43.964Z,23.39
2022-07-25T02:58:40.982Z,23.02
2022-07-25T02:59:38.539Z,22.86
2022-07-25T03:00:35.367Z,23.06
2022-07-25T03:01:32.468Z,22.87
2022-07-25T03:02:29.277Z,23.53
2022-07-25T03:03:26.090Z,22.93
2022-07-25T03:04:23.690Z,23.26
2022-07-25T03:05:20.457Z,23.15
2022-07-25T03:06:17.407Z,23.19
2022-07-25T03:07:14.182Z,22.94
2022-07-25T03:08:11.003Z,23.22
2022-07-25T03:09:07.761Z,23.02
2022-07-25T03:10:08.737Z,22.58
2022-07-25T03:11:08.351Z,23.30
2022-07-25T03:12:05.562Z,23.11
2022-07-25T03:13:03.184Z,23.16
2022-07-25T03:14:00.805Z,23.28
2022-07-25T03:14:57.611Z,22.92
2022-07-25T03:15:54.370Z,22.53
2022-07-25T03:16:51.164Z,23.35
2022-07-25T03:17:48.065Z,23.35
2022-07-25T03:18:44.797Z,23.35
2022-07-25T03:19:41.730Z,23.36
2022-07-25T03:20:38.457Z,23.37
2022-07-25T03:21:35.155Z,23.37
2022-07-25T03:22:32.147Z,23.13
2022-07-25T03:23:29.939Z,23.17
2022-07-25T03:24:26.667Z,22.74
2022-07-25T03:25:23.512Z,22.96
2022-07-25T03:26:20.519Z,23.14
2022-07-25T03:27:17.547Z,23.19
2022-07-25T03:28:14.303Z,23.24
2022-07-25T03:29:11.375Z,23.02
2022-07-25T03:30:08.983Z,23.33
2022-07-25T03:31:05.833Z,23.35
2022-07-25T03:32:02.821Z,23.48
2022-07-25T03:32:59.638Z,23.07
2022-07-25T03:33:56.856Z,23.51
2022-07-25T03:34:53.813Z,23.43
2022-07-25T03:35:50.761Z,23.25
2022-07-25T03:36:47.546Z,22.69
2022-07-25T03:37:44.440Z,22.91
2022-07-25T03:38:41.178Z,23.28
2022-07-25T03:39:37.969Z,23.03
2022-07-25T03:40:35.431Z,22.81
2022-07-25T03:41:32.346Z,22.70
2022-07-25T03:42:33.519Z,23.18
2022-07-25T03:43:32.267Z,21.68
2022-07-25T03:44:29.147Z,23.25
2022-07-25T03:45:25.926Z,23.20
2022-07-25T03:46:23.181Z,22.99
2022-07-25T03:47:20.574Z,23.21
2022-07-25T03:48:17.680Z,23.21
2022-07-25T03:49:14.570Z,23.09
2022-07-25T03:50:11.806Z,23.32
2022-07-25T03:51:10.998Z,23.05
2022-07-25T03:52:07.738Z,22.97
2022-07-25T03:53:04.462Z,23.23
2022-07-25T03:54:05.263Z,23.26
2022-07-25T03:55:02.320Z,23.30
2022-07-25T03:55:59.102Z,23.25
2022-07-25T03:56:55.876Z,23.24
2022-07-25T03:57:52.626Z,23.12
2022-07-25T03:58:49.432Z,23.13
2022-07-25T03:59:46.140Z,23.33
2022-07-25T04:00:42.957Z,23.19
2022-07-25T04:01:41.975Z,22.89
2022-07-25T04:02:38.865Z,23.32
2022-07-25T04:03:36.384Z,23.05
2022-07-25T04:04:33.678Z,23.19
2022-07-25T04:05:30.438Z,23.40
2022-07-25T04:06:28.066Z,23.45
2022-07-25T04:07:24.808Z,23.41
2022-07-25T04:08:21.587Z,23.51
2022-07-25T04:09:18.302Z,23.21
2022-07-25T04:10:15.071Z,23.32
2022-07-25T04:11:11.814Z,23.29
2022-07-25T04:12:08.743Z,23.46
2022-07-25T04:13:05.467Z,23.48
2022-07-25T04:14:03.419Z,23.36
2022-07-25T04:15:01.255Z,23.33
2022-07-25T04:15:57.994Z,23.36
2022-07-25T04:16:54.715Z,23.35
2022-07-25T04:17:51.454Z,23.37
2022-07-25T04:18:48.802Z,23.43
2022-07-25T04:19:46.287Z,23.51
2022-07-25T04:20:43.150Z,23.23
2022-07-25T04:21:39.875Z,23.24
2022-07-25T04:22:37.046Z,23.20
2022-07-25T04:23:34.334Z,23.51
2022-07-25T04:24:31.105Z,23.43
2022-07-25T04:25:27.913Z,23.61
2022-07-25T04:26:24.847Z,23.52
2022-07-25T04:27:21.566Z,23.54
2022-07-25T04:28:18.299Z,23.60
2022-07-25T04:29:15.044Z,23.49
2022-07-25T04:30:12.146Z,23.43
2022-07-25T04:31:09.014Z,23.47
2022-07-25T04:32:06.353Z,23.23
2022-07-25T04:33:03.223Z,23.40
2022-07-25T04:34:00.161Z,23.44
2022-07-25T04:34:56.968Z,23.55
2022-07-25T04:35:54.155Z,23.58
2022-07-25T04:36:50.866Z,23.56
2022-07-25T04:37:47.580Z,23.68
2022-07-25T04:38:44.431Z,23.63
2022-07-25T04:39:41.193Z,23.62
2022-07-25T04:40:38.752Z,23.76
2022-07-25T04:41:35.508Z,23.79
2022-07-25T04:42:32.351Z,23.84
2022-07-25T04:43:29.129Z,23.97
2022-07-25T04:44:26.095Z,23.58
2022-07-25T04:45:23.662Z,23.33
2022-07-25T04:46:22.359Z,23.72
2022-07-25T04:47:19.091Z,23.94
2022-07-25T04:48:15.840Z,23.96
2022-07-25T04:49:12.651Z,23.84
2022-07-25T04:50:10.173Z,23.88
2022-07-25T04:51:07.694Z,23.99
2022-07-25T04:52:04.659Z,23.83
2022-07-25T04:53:01.393Z,23.99
2022-07-25T04:53:58.160Z,23.77
2022-07-25T04:54:54.907Z,24.04
2022-07-25T04:55:51.708Z,24.13
2022-07-25T04:56:48.527Z,24.07
2022-07-25T04:57:47.280Z,24.05
2022-07-25T04:58:44.315Z,23.86
2022-07-25T04:59:41.149Z,24.00
2022-07-25T05:00:38.251Z,23.85
2022-07-25T05:01:35.527Z,24.02
2022-07-25T05:02:32.567Z,24.15
2022-07-25T05:03:29.444Z,24.26
2022-07-25T05:04:26.206Z,24.27
2022-07-25T05:05:23.933Z,24.02
2022-07-25T05:06:20.659Z,24.12
2022-07-25T05:07:17.762Z,24.20
2022-07-25T05:08:14.562Z,24.22
2022-07-25T05:09:11.322Z,23.48
2022-07-25T05:10:08.529Z,24.34
2022-07-25T05:11:05.329Z,24.39
2022-07-25T05:12:02.069Z,24.53
2022-07-25T05:12:59.829Z,24.60
2022-07-25T05:13:56.663Z,24.64
2022-07-25T05:14:55.034Z,24.32
2022-07-25T05:15:51.756Z,24.61
2022-07-25T05:16:48.607Z,24.53
2022-07-25T05:17:45.530Z,24.33
2022-07-25T05:18:42.333Z,23.84
2022-07-25T05:19:39.122Z,24.14
2022-07-25T05:20:35.891Z,24.64
2022-07-25T05:21:32.668Z,24.73
2022-07-25T05:22:29.548Z,24.65
2022-07-25T05:23:26.335Z,24.81
2022-07-25T05:24:23.156Z,25.01
2022-07-25T05:25:20.163Z,24.88
2022-07-25T05:26:16.919Z,24.91
2022-07-25T05:27:13.648Z,24.96
2022-07-25T05:28:10.395Z,25.27
2022-07-25T05:29:07.153Z,24.30
2022-07-25T05:30:05.830Z,25.02
2022-07-25T05:31:02.638Z,25.30
2022-07-25T05:31:59.520Z,25.23
2022-07-25T05:32:56.344Z,25.36
2022-07-25T05:33:53.095Z,24.52
2022-07-25T05:34:49.899Z,25.30
2022-07-25T05:35:46.699Z,25.29
2022-07-25T05:36:47.196Z,25.07
2022-07-25T05:37:44.217Z,25.34
2022-07-25T05:38:40.951Z,25.49
2022-07-25T05:39:39.887Z,25.14
2022-07-25T05:40:36.714Z,25.30
2022-07-25T05:41:33.553Z,25.55
2022-07-25T05:42:30.439Z,24.76
2022-07-25T05:43:27.694Z,25.48
2022-07-25T05:44:24.420Z,25.43
2022-07-25T05:45:21.212Z,25.28
2022-07-25T05:46:18.287Z,25.52
2022-07-25T05:47:15.766Z,25.67
2022-07-25T05:48:12.535Z,25.55
2022-07-25T05:49:09.450Z,25.53
2022-07-25T05:50:06.795Z,25.63
2022-07-25T05:51:03.743Z,25.52
2022-07-25T05:52:00.449Z,24.84
2022-07-25T05:52:57.241Z,25.51
2022-07-25T05:53:54.093Z,25.90
2022-07-25T05:54:51.027Z,25.90
2022-07-25T05:55:47.854Z,26.12
2022-07-25T05:56:44.700Z,25.80
2022-07-25T05:57:41.546Z,25.76
2022-07-25T05:58:40.514Z,25.92
2022-07-25T05:59:37.226Z,25.65
2022-07-25T06:00:33.983Z,25.82
2022-07-25T06:01:30.929Z,25.72
2022-07-25T06:02:27.823Z,25.97
2022-07-25T06:03:24.746Z,25.82
2022-07-25T06:04:26.804Z,25.82
2022-07-25T06:05:23.950Z,24.97
2022-07-25T06:06:20.807Z,25.75
2022-07-25T06:07:17.549Z,25.59
2022-07-25T06:08:15.236Z,24.76
2022-07-25T06:09:11.958Z,25.61
2022-07-25T06:10:09.704Z,25.76
2022-07-25T06:11:08.264Z,25.99
2022-07-25T06:12:06.484Z,25.64
2022-07-25T06:13:05.274Z,26.19
2022-07-25T06:14:02.159Z,25.90
2022-07-25T06:14:59.059Z,26.27
2022-07-25T06:15:57.006Z,26.23
2022-07-25T06:16:54.197Z,26.42
2022-07-25T06:17:50.955Z,26.36
2022-07-25T06:18:47.670Z,26.37
2022-07-25T06:19:44.719Z,26.40
2022-07-25T06:20:41.675Z,26.10
2022-07-25T06:21:38.436Z,26.37
2022-07-25T06:22:35.267Z,26.06
2022-07-25T06:23:32.131Z,26.58
2022-07-25T06:24:28.882Z,26.52
2022-07-25T06:25:25.718Z,26.73
2022-07-25T06:26:22.449Z,26.76
2022-07-25T06:27:21.114Z,26.72
2022-07-25T06:28:20.042Z,26.58
2022-07-25T06:29:17.039Z,26.08
2022-07-25T06:30:19.845Z,26.28
2022-07-25T06:31:18.901Z,26.19
2022-07-25T06:32:18.641Z,26.30
2022-07-25T06:33:15.401Z,26.61
2022-07-25T06:34:12.161Z,26.67
2022-07-25T06:35:09.249Z,26.35
2022-07-25T06:36:06.635Z,26.18
2022-07-25T06:37:03.727Z,26.54
2022-07-25T06:38:00.634Z,26.31
2022-07-25T06:38:57.361Z,26.66
2022-07-25T06:39:54.365Z,26.42
2022-07-25T06:40:51.227Z,26.51
2022-07-25T06:41:48.233Z,26.24
2022-07-25T06:42:47.121Z,26.62
2022-07-25T06:43:44.054Z,25.84
2022-07-25T06:44:40.993Z,26.30
2022-07-25T06:45:37.817Z,26.73
2022-07-25T06:46:35.068Z,26.99
2022-07-25T06:47:35.869Z,26.13
2022-07-25T06:48:32.987Z,26.51
2022-07-25T06:49:29.854Z,25.81
2022-07-25T06:50:26.601Z,26.76
2022-07-25T06:51:24.100Z,27.03
2022-07-25T06:52:20.846Z,26.86
2022-07-25T06:53:17.994Z,27.24
2022-07-25T06:54:15.651Z,26.97
2022-07-25T06:55:15.940Z,26.80
2022-07-25T06:56:17.478Z,27.13
2022-07-25T06:57:14.601Z,26.93
2022-07-25T06:58:11.329Z,26.88
2022-07-25T06:59:08.033Z,26.35
2022-07-25T07:00:09.671Z,27.14
2022-07-25T07:01:07.205Z,27.20
2022-07-25T07:02:04.088Z,26.62
2022-07-25T07:03:02.539Z,27.49
2022-07-25T07:03:59.372Z,27.63
2022-07-25T07:04:56.113Z,27.79
2022-07-25T07:05:52.888Z,27.47
2022-07-25T07:06:49.623Z,27.37
2022-07-25T07:07:48.051Z,27.47
2022-07-25T07:08:44.998Z,27.55
2022-07-25T07:09:44.247Z,27.47
2022-07-25T07:10:41.129Z,27.54
2022-07-25T07:11:37.868Z,27.25
2022-07-25T07:12:34.598Z,27.06
2022-07-25T07:13:32.316Z,27.76
2022-07-25T07:14:29.061Z,27.77
2022-07-25T07:15:25.812Z,27.92
2022-07-25T07:16:22.589Z,27.67
2022-07-25T07:17:19.342Z,26.99
2022-07-25T07:18:17.520Z,27.77
2022-07-25T07:19:17.404Z,27.68
2022-07-25T07:20:14.129Z,27.83
2022-07-25T07:21:11.615Z,27.34
2022-07-25T07:22:17.938Z,28.00
2022-07-25T07:23:16.905Z,27.91
2022-07-25T07:24:23.956Z,27.90
2022-07-25T07:25:21.746Z,27.45
2022-07-25T07:26:18.539Z,28.29
2022-07-25T07:27:15.356Z,28.31
2022-07-25T07:28:16.788Z,28.17
2022-07-25T07:29:13.572Z,28.06
2022-07-25T07:30:12.292Z,28.05
2022-07-25T07:31:17.426Z,28.42
2022-07-25T07:32:15.551Z,27.88
2022-07-25T07:33:12.339Z,27.96
2022-07-25T07:34:09.176Z,28.31
2022-07-25T07:35:12.318Z,28.06
2022-07-25T07:36:09.373Z,28.08
2022-07-25T07:37:06.208Z,28.17
2022-07-25T07:38:03.016Z,28.17
2022-07-25T07:38:59.737Z,28.45
2022-07-25T07:39:56.515Z,28.38
2022-07-25T07:40:54.599Z,28.03
2022-07-25T07:41:51.319Z,28.42
2022-07-25T07:42:50.351Z,28.33
2022-07-25T07:43:47.228Z,28.18
2022-07-25T07:44:44.061Z,28.22
2022-07-25T07:45:42.501Z,28.21
2022-07-25T07:46:39.304Z,28.50
2022-07-25T07:47:36.115Z,28.46
2022-07-25T07:48:33.755Z,28.62
2022-07-25T07:49:30.582Z,28.11
2022-07-25T07:50:33.885Z,28.32
2022-07-25T07:51:30.677Z,28.19
2022-07-25T07:52:27.410Z,28.74
2022-07-25T07:53:44.107Z,28.59
2022-07-25T07:54:59.817Z,28.47
2022-07-25T07:55:56.574Z,28.48
2022-07-25T07:56:53.349Z,27.79
2022-07-25T07:57:50.106Z,28.29
2022-07-25T07:58:47.234Z,28.56
2022-07-25T07:59:44.112Z,28.75
2022-07-25T08:00:41.223Z,28.62
2022-07-25T08:01:38.223Z,28.35
2022-07-25T08:02:47.083Z,28.60
2022-07-25T08:03:43.905Z,28.95
2022-07-25T08:04:40.663Z,28.54
2022-07-25T08:05:44.427Z,28.85
2022-07-25T08:06:42.962Z,28.91
2022-07-25T08:07:39.719Z,28.83
2022-07-25T08:08:36.629Z,28.44
2022-07-25T08:09:33.384Z,28.75
2022-07-25T08:10:33.111Z,28.67
2022-07-25T08:11:29.822Z,28.90
2022-07-25T08:12:26.609Z,28.65
2022-07-25T08:13:27.846Z,29.10
2022-07-25T08:14:24.752Z,29.09
2022-07-25T08:15:22.636Z,28.74
2022-07-25T08:16:19.445Z,28.11
2022-07-25T08:17:16.197Z,28.19
2022-07-25T08:18:18.026Z,28.66
2022-07-25T08:19:15.074Z,28.83
2022-07-25T08:20:35.760Z,28.77
2022-07-25T08:21:29.081Z,28.88
2022-07-25T08:22:39.059Z,28.88
2022-07-25T08:23:38.878Z,28.76
2022-07-25T08:24:35.877Z,28.63
2022-07-25T08:25:32.873Z,28.84
2022-07-25T08:26:31.241Z,28.98
2022-07-25T08:27:27.967Z,28.29
2022-07-25T08:28:24.746Z,29.05
2022-07-25T08:29:26.345Z,29.04
2022-07-25T08:30:25.540Z,28.91
2022-07-25T08:31:22.667Z,29.29
2022-07-25T08:32:19.421Z,29.32
2022-07-25T08:33:16.535Z,29.39
2022-07-25T08:34:13.752Z,29.15
2022-07-25T08:35:11.588Z,29.76
2022-07-25T08:36:10.899Z,29.55
2022-07-25T08:37:07.692Z,29.89
2022-07-25T08:38:04.969Z,29.21
2022-07-25T08:39:01.995Z,29.49
2022-07-25T08:39:58.866Z,29.70
2022-07-25T08:40:57.376Z,29.83
2022-07-25T08:41:54.282Z,29.96
2022-07-25T08:42:52.599Z,29.90
2022-07-25T08:43:50.134Z,29.82
2022-07-25T08:44:58.233Z,29.51
2022-07-25T08:45:55.688Z,29.51
2022-07-25T08:46:53.393Z,29.04
2022-07-25T08:47:52.242Z,28.81
2022-07-25T08:48:50.987Z,29.16
2022-07-25T08:49:48.470Z,29.39
2022-07-25T08:50:47.161Z,29.40
2022-07-25T08:51:44.432Z,29.29
2022-07-25T08:52:44.392Z,29.33
2022-07-25T08:53:41.382Z,29.56
2022-07-25T08:54:38.521Z,29.48
2022-07-25T08:55:35.839Z,28.81
2022-07-25T08:56:32.603Z,29.55
2022-07-25T08:57:29.396Z,29.41
2022-07-25T08:58:26.122Z,29.53
2022-07-25T08:59:22.874Z,29.59
2022-07-25T09:00:26.493Z,29.25
2022-07-25T09:01:23.403Z,29.54
2022-07-25T09:02:20.284Z,29.62
2022-07-25T09:03:17.429Z,29.93
2022-07-25T09:04:14.942Z,29.70
2022-07-25T09:05:11.668Z,29.86
2022-07-25T09:06:22.488Z,29.56
2022-07-25T09:07:40.065Z,29.64
2022-07-25T09:08:36.892Z,29.15
2022-07-25T09:09:39.027Z,29.89
2022-07-25T09:10:36.984Z,29.51
2022-07-25T09:11:37.050Z,29.85
2022-07-25T09:12:33.763Z,30.18
2022-07-25T09:13:37.800Z,30.32
2022-07-25T09:14:44.740Z,30.34
2022-07-25T09:15:53.923Z,30.09
2022-07-25T09:16:51.079Z,29.98
2022-07-25T09:17:52.437Z,29.94
2022-07-25T09:18:49.348Z,29.60
2022-07-25T09:19:54.436Z,29.32
2022-07-25T09:20:59.140Z,29.33
2022-07-25T09:22:10.023Z,29.65
2022-07-25T09:23:07.669Z,29.07
2022-07-25T09:24:17.244Z,30.09
2022-07-25T09:25:31.248Z,30.36
2022-07-25T09:26:28.190Z,30.44
2022-07-25T09:27:34.497Z,30.08
2022-07-25T09:28:31.269Z,30.12
2022-07-25T09:29:31.921Z,30.25
2022-07-25T09:30:28.963Z,29.32
2022-07-25T09:31:32.660Z,29.31
2022-07-25T09:32:29.652Z,30.02
2022-07-25T09:33:28.511Z,29.84
2022-07-25T09:34:40.019Z,29.73
2022-07-25T09:35:41.243Z,29.21
2022-07-25T09:36:39.985Z,29.65
2022-07-25T09:37:36.723Z,28.96
2022-07-25T09:38:33.598Z,29.37
2022-07-25T09:39:40.740Z,29.33
2022-07-25T09:40:41.768Z,29.74
2022-07-25T09:41:41.763Z,29.74
2022-07-25T09:42:38.999Z,30.07
2022-07-25T09:43:43.420Z,30.12
2022-07-25T09:44:40.226Z,29.93
2022-07-25T09:45:37.029Z,30.00
2022-07-25T09:46:33.780Z,29.28
2022-07-25T09:47:32.531Z,29.62
2022-07-25T09:48:29.441Z,29.70
2022-07-25T09:49:37.137Z,29.39
2022-07-25T09:50:34.112Z,29.60
2022-07-25T09:51:31.784Z,29.16
2022-07-25T09:52:28.580Z,29.40
2022-07-25T09:53:26.367Z,29.26
2022-07-25T09:54:24.113Z,29.14
2022-07-25T09:55:22.878Z,28.79
2022-07-25T09:56:19.603Z,28.98
2022-07-25T09:57:16.902Z,28.91
2022-07-25T09:58:14.034Z,29.13
2022-07-25T09:59:10.805Z,29.10
2022-07-25T10:00:09.444Z,29.18
2022-07-25T10:01:08.343Z,29.26
2022-07-25T10:02:30.051Z,29.50
2022-07-25T10:03:42.050Z,29.49
2022-07-25T10:05:11.007Z,29.52
2022-07-25T10:06:35.527Z,29.55
2022-07-25T10:07:38.635Z,29.70
2022-07-25T10:08:37.734Z,29.83
2022-07-25T10:09:48.081Z,30.12
2022-07-25T10:10:44.886Z,29.54
2022-07-25T10:12:09.067Z,30.25
2022-07-25T10:13:10.742Z,29.62
2022-07-25T10:14:12.542Z,29.88
2022-07-25T10:15:10.534Z,30.12
2022-07-25T10:16:16.872Z,29.76
2022-07-25T10:17:21.704Z,30.15
2022-07-25T10:18:27.684Z,30.26
2022-07-25T10:19:50.037Z,30.12
2022-07-25T10:20:53.373Z,30.31
2022-07-25T10:21:55.989Z,30.41
2022-07-25T10:22:57.344Z,30.25
2022-07-25T10:23:59.471Z,30.27
2022-07-25T10:25:13.356Z,30.17
2022-07-25T10:26:16.365Z,30.42
2022-07-25T10:27:23.375Z,30.11
2022-07-25T10:28:20.970Z,30.04
2022-07-25T10:29:17.849Z,29.71
2022-07-25T10:30:28.473Z,28.85
2022-07-25T10:31:34.463Z,29.63
2022-07-25T10:32:35.301Z,29.77
2022-07-25T10:33:42.572Z,29.81
2022-07-25T10:34:39.988Z,29.87
2022-07-25T10:35:36.775Z,28.72
2022-07-25T10:36:44.245Z,30.04
2022-07-25T10:37:43.740Z,30.01
2022-07-25T10:38:45.079Z,29.87
2022-07-25T10:39:50.748Z,30.31
2022-07-25T10:40:48.070Z,30.46
2022-07-25T10:41:55.824Z,30.27
2022-07-25T10:42:58.047Z,29.67
2022-07-25T10:44:02.706Z,30.37
2022-07-25T10:45:05.370Z,30.28
2022-07-25T10:46:02.567Z,30.57
2022-07-25T10:47:08.722Z,30.31
2022-07-25T10:48:11.009Z,30.59
2022-07-25T10:49:08.950Z,30.80
2022-07-25T10:50:25.438Z,30.61
2022-07-25T10:51:31.795Z,30.53
2022-07-25T10:52:30.308Z,30.15
2022-07-25T10:53:36.161Z,30.14
2022-07-25T10:54:38.499Z,30.13
2022-07-25T10:55:37.121Z,30.06
2022-07-25T10:56:36.990Z,30.12
2022-07-25T10:57:34.461Z,29.97
2022-07-25T10:58:57.209Z,30.00
2022-07-25T10:59:54.335Z,29.96
2022-07-25T11:00:51.490Z,30.20
2022-07-25T11:01:51.128Z,30.36
2022-07-25T11:02:50.105Z,30.35
2022-07-25T11:03:47.004Z,30.53
2022-07-25T11:04:46.352Z,30.45
2022-07-25T11:05:47.725Z,30.59
2022-07-25T11:06:45.294Z,30.39
2022-07-25T11:08:19.034Z,30.81
2022-07-25T11:09:23.769Z,31.12
2022-07-25T11:10:28.191Z,30.31
2022-07-25T11:11:55.617Z,30.59
2022-07-25T11:12:52.770Z,30.44
2022-07-25T11:13:50.211Z,30.41
2022-07-25T11:14:47.581Z,29.98
2022-07-25T11:15:45.168Z,30.19
2022-07-25T11:16:42.465Z,30.14
2022-07-25T11:17:49.328Z,30.29
2022-07-25T11:18:46.075Z,30.07
2022-07-25T11:19:53.320Z,30.12
2022-07-25T11:21:04.251Z,29.80
2022-07-25T11:22:06.299Z,30.13
2022-07-25T11:23:03.061Z,30.06
2022-07-25T11:23:59.835Z,30.15
2022-07-25T11:24:57.788Z,30.47
2022-07-25T11:26:14.835Z,30.70
2022-07-25T11:27:14.762Z,30.86
2022-07-25T11:28:11.639Z,30.65
2022-07-25T11:29:08.723Z,30.62
2022-07-25T11:30:15.491Z,30.66
2022-07-25T11:31:14.519Z,30.74
2022-07-25T11:32:13.472Z,30.80
2022-07-25T11:33:17.618Z,30.79
2022-07-25T11:34:15.118Z,30.93
2022-07-25T11:35:14.433Z,31.02
2022-07-25T11:36:15.169Z,31.01
2022-07-25T11:37:14.371Z,30.35
2022-07-25T11:38:14.527Z,30.82
2022-07-25T11:39:16.858Z,30.88
2022-07-25T11:40:16.767Z,30.74
2022-07-25T11:41:13.517Z,30.50
2022-07-25T11:42:16.765Z,30.35
2022-07-25T11:43:23.795Z,30.18
2022-07-25T11:44:30.860Z,30.33
2022-07-25T11:45:31.099Z,30.39
2022-07-25T11:46:28.044Z,30.04
2022-07-25T11:47:29.068Z,29.89
2022-07-25T11:48:38.890Z,30.03
2022-07-25T11:49:51.029Z,29.96
2022-07-25T11:50:47.891Z,30.01
2022-07-25T11:51:44.677Z,30.17
2022-07-25T11:52:43.335Z,30.17
2022-07-25T11:53:51.439Z,30.18
2022-07-25T11:55:03.345Z,30.13
2022-07-25T11:56:39.776Z,30.30
2022-07-25T11:57:34.419Z,30.35
2022-07-25T11:58:31.340Z,30.44
2022-07-25T11:59:28.514Z,30.37
2022-07-25T12:00:25.265Z,29.78
2022-07-25T12:01:22.038Z,30.28
2022-07-25T12:02:35.176Z,29.74
2022-07-25T12:03:38.302Z,30.10
2022-07-25T12:04:35.097Z,30.43
2022-07-25T12:05:33.547Z,30.39
2022-07-25T12:06:30.289Z,29.99
2022-07-25T12:07:47.784Z,30.15
2022-07-25T12:08:44.528Z,30.10
2022-07-25T12:09:41.326Z,30.30
2022-07-25T12:10:39.139Z,30.22
2022-07-25T12:11:35.903Z,30.19
2022-07-25T12:12:43.388Z,30.18
2022-07-25T12:13:40.107Z,30.02
2022-07-25T12:14:43.966Z,30.08
2022-07-25T12:15:41.509Z,30.09
2022-07-25T12:16:38.519Z,29.37
2022-07-25T12:17:35.531Z,29.91
2022-07-25T12:18:32.333Z,29.28
2022-07-25T12:19:29.064Z,29.83
2022-07-25T12:20:29.112Z,29.97
2022-07-25T12:21:27.569Z,29.89
2022-07-25T12:22:24.302Z,29.45
2022-07-25T12:23:23.754Z,30.01
2022-07-25T12:24:20.540Z,29.67
2022-07-25T12:25:17.727Z,29.90
2022-07-25T12:26:14.585Z,30.36
2022-07-25T12:27:11.357Z,30.36
2022-07-25T12:28:10.015Z,29.57
2022-07-25T12:29:07.146Z,29.73
2022-07-25T12:30:05.687Z,29.96
2022-07-25T12:31:02.515Z,29.93
2022-07-25T12:31:59.300Z,29.86
2022-07-25T12:32:57.507Z,29.90
2022-07-25T12:33:55.670Z,29.72
2022-07-25T12:34:52.382Z,29.93
2022-07-25T12:35:49.120Z,30.03
2022-07-25T12:36:45.972Z,29.84
2022-07-25T12:37:44.517Z,30.20